Time;durP1;ratioP1;P1;durP2;ratioP2;P2;SDS_P1;SDS_P2;PMS_P1;PMS_P2;Temp;Humidity;BMP_temperature;BMP_pressure;BME280_temperature;BME280_humidity;BME280_pressure;Samples;Min_cycle;Max_cycle;Signal;HPM_P1;HPM_P2
2022/03/21 00:01:23;;;;;;;95.32;51.88;;;0.60;84.20;;;;;;5117452;27;20532;-70
2022/03/21 00:03:49;;;;;;;127.43;55.97;;;0.60;84.10;;;;;;5092731;28;20088;-69
2022/03/21 00:06:15;;;;;;;116.60;57.95;;;0.60;84.00;;;;;;5081018;28;20484;-70
2022/03/21 00:08:43;;;;;;;107.63;54.70;;;0.50;84.00;;;;;;5108060;27;20046;-69
2022/03/21 00:11:09;;;;;;;116.72;56.72;;;0.50;84.00;;;;;;5088503;28;20387;-71
2022/03/21 00:13:35;;;;;;;142.60;59.13;;;0.50;84.10;;;;;;5075118;28;20035;-70
2022/03/21 00:16:07;;;;;;;343.10;79.32;;;0.50;84.10;;;;;;5108050;27;20596;-69
2022/03/21 00:18:34;;;;;;;167.18;59.78;;;0.50;84.30;;;;;;5108267;27;20220;-70
2022/03/21 00:21:05;;;;;;;124.90;55.05;;;0.50;84.40;;;;;;5094647;28;20130;-70
2022/03/21 00:23:31;;;;;;;219.18;60.85;;;0.50;84.40;;;;;;5058258;28;20044;-71
2022/03/21 00:25:57;;;;;;;220.27;59.10;;;0.50;84.40;;;;;;5080710;28;20043;-69
2022/03/21 00:28:23;;;;;;;230.77;57.83;;;0.50;84.50;;;;;;5091192;27;20061;-70
2022/03/21 00:30:49;;;;;;;124.50;51.50;;;0.50;84.70;;;;;;5093297;28;20027;-70
2022/03/21 00:33:15;;;;;;;267.95;61.50;;;0.50;84.80;;;;;;5094866;27;20032;-70
2022/03/21 00:35:45;;;;;;;413.73;81.63;;;0.60;84.90;;;;;;5111753;27;20495;-70
2022/03/21 00:38:18;;;;;;;564.55;93.25;;;0.50;84.90;;;;;;5126643;27;20289;-70
2022/03/21 00:40:45;;;;;;;118.72;52.72;;;0.50;84.80;;;;;;5109161;27;20042;-69
2022/03/21 00:43:14;;;;;;;95.03;50.67;;;0.50;84.70;;;;;;5113423;27;20039;-70
2022/03/21 00:45:39;;;;;;;111.43;55.90;;;0.40;84.70;;;;;;5067602;28;20547;-69
2022/03/21 00:48:05;;;;;;;115.30;54.90;;;0.40;84.60;;;;;;5073147;28;20208;-69
2022/03/21 00:50:31;;;;;;;90.13;50.53;;;0.30;84.60;;;;;;5088637;28;20051;-70
2022/03/21 00:52:57;;;;;;;84.17;46.53;;;0.30;84.50;;;;;;5090889;27;20042;-69
2022/03/21 00:55:26;;;;;;;104.45;51.00;;;0.30;84.70;;;;;;5100712;28;20039;-70
2022/03/21 00:57:52;;;;;;;86.38;47.38;;;0.20;84.80;;;;;;5094667;27;20043;-70
2022/03/21 01:00:21;;;;;;;95.38;51.00;;;0.20;84.80;;;;;;5086610;28;20492;-70
2022/03/21 01:02:47;;;;;;;95.53;49.80;;;0.20;84.90;;;;;;5109439;27;20047;-70
2022/03/21 01:05:13;;;;;;;96.22;51.13;;;0.10;84.90;;;;;;5093448;28;20048;-70
2022/03/21 01:07:41;;;;;;;102.13;53.35;;;0.10;84.90;;;;;;5106462;27;20039;-70
2022/03/21 01:10:10;;;;;;;90.05;49.83;;;0.10;84.90;;;;;;5101090;28;20476;-70
2022/03/21 01:12:35;;;;;;;106.03;56.45;;;0.00;85.00;;;;;;5101865;27;20047;-70
2022/03/21 01:15:03;;;;;;;94.43;52.10;;;0.00;85.00;;;;;;5086898;28;20054;-71
2022/03/21 01:17:29;;;;;;;106.88;55.42;;;0.00;84.90;;;;;;5083562;28;20074;-69
2022/03/21 01:19:54;;;;;;;110.90;56.83;;;-0.10;85.00;;;;;;5088517;28;20051;-70
2022/03/21 01:22:20;;;;;;;112.63;57.13;;;-0.10;85.10;;;;;;5093954;27;20184;-69
2022/03/21 01:24:46;;;;;;;111.30;57.80;;;0.00;85.10;;;;;;5087637;28;20036;-69
2022/03/21 01:27:12;;;;;;;107.60;56.77;;;0.00;85.30;;;;;;5085877;28;20032;-70
2022/03/21 01:29:37;;;;;;;121.63;60.05;;;0.00;85.30;;;;;;5088879;27;20032;-69
2022/03/21 01:32:04;;;;;;;115.07;56.63;;;0.00;85.50;;;;;;5102809;28;20036;-69
2022/03/21 01:34:30;;;;;;;105.85;55.10;;;0.10;85.50;;;;;;5103699;28;20075;-70
2022/03/21 01:36:56;;;;;;;134.40;61.80;;;0.10;85.60;;;;;;5111776;27;20220;-69
2022/03/21 01:39:25;;;;;;;117.18;58.78;;;0.00;85.50;;;;;;5102597;28;20461;-70
2022/03/21 01:41:51;;;;;;;112.75;59.38;;;0.00;85.30;;;;;;5107253;27;20039;-69
2022/03/21 01:44:18;;;;;;;117.55;56.92;;;-0.10;85.40;;;;;;5084932;28;20047;-70
2022/03/21 01:46:46;;;;;;;113.43;58.03;;;-0.10;85.40;;;;;;5089968;28;20047;-70
2022/03/21 01:49:13;;;;;;;110.78;56.42;;;-0.10;85.40;;;;;;5098322;28;20035;-70
2022/03/21 01:51:41;;;;;;;107.22;56.47;;;-0.10;85.30;;;;;;5084204;28;20043;-71
2022/03/21 01:56:51;;;;;;;104.80;55.70;;;-0.10;85.30;;;;;;5097595;28;20427;-70
2022/03/21 01:59:19;;;;;;;114.90;57.90;;;-0.20;85.30;;;;;;5048145;28;20130;-70
2022/03/21 02:01:45;;;;;;;111.75;57.65;;;-0.20;85.30;;;;;;5090396;28;20108;-70
2022/03/21 02:04:11;;;;;;;117.85;58.47;;;-0.20;85.20;;;;;;5072691;28;20052;-70
2022/03/21 02:06:38;;;;;;;104.43;53.13;;;-0.20;85.20;;;;;;5095650;28;20040;-70
2022/03/21 02:09:07;;;;;;;114.18;58.15;;;-0.20;85.30;;;;;;5082951;28;20287;-70
2022/03/21 02:11:33;;;;;;;118.72;58.22;;;-0.20;85.40;;;;;;5096145;28;20104;-70
2022/03/21 02:14:01;;;;;;;109.75;58.28;;;-0.20;85.30;;;;;;5102874;28;20043;-69
2022/03/21 02:16:29;;;;;;;105.75;55.88;;;-0.30;85.30;;;;;;5082923;28;20534;-71
2022/03/21 02:19:00;;;;;;;128.55;62.13;;;-0.30;85.30;;;;;;5076823;28;20071;-69
2022/03/21 02:21:48;;;;;;;108.20;58.33;;;-0.30;85.30;;;;;;5095102;28;20063;-69
2022/03/21 02:24:29;;;;;;;122.93;60.30;;;-0.30;85.40;;;;;;5121597;27;20039;-71
2022/03/21 02:26:57;;;;;;;109.95;57.75;;;-0.30;85.50;;;;;;5101885;28;20036;-70
2022/03/21 02:29:25;;;;;;;117.72;59.50;;;-0.30;85.40;;;;;;5085516;28;20043;-70
2022/03/21 02:31:53;;;;;;;122.10;60.80;;;-0.30;85.50;;;;;;5078078;28;20061;-70
2022/03/21 02:34:20;;;;;;;104.32;55.95;;;-0.30;85.60;;;;;;5100050;28;20663;-69
2022/03/21 02:36:46;;;;;;;110.35;57.58;;;-0.30;85.50;;;;;;5080499;28;20126;-70
2022/03/21 02:39:12;;;;;;;109.60;57.72;;;-0.30;85.50;;;;;;5085969;28;20088;-71
2022/03/21 02:41:38;;;;;;;118.47;60.10;;;-0.30;85.60;;;;;;5071270;28;20434;-69
2022/03/21 02:44:04;;;;;;;113.23;58.80;;;-0.40;85.40;;;;;;5092038;28;20035;-70
2022/03/21 02:46:36;;;;;;;117.80;59.08;;;-0.30;85.50;;;;;;5097315;27;20090;-70
2022/03/21 02:49:02;;;;;;;115.72;59.38;;;-0.30;85.60;;;;;;5099670;28;20042;-70
2022/03/21 02:51:29;;;;;;;110.40;58.37;;;-0.30;85.50;;;;;;5101282;27;20403;-70
2022/03/21 02:53:55;;;;;;;122.75;59.15;;;-0.30;85.50;;;;;;5085894;28;20571;-69
2022/03/21 02:56:21;;;;;;;120.40;57.93;;;-0.40;85.50;;;;;;5132056;27;20129;-69
2022/03/21 02:58:48;;;;;;;118.23;61.13;;;-0.40;85.40;;;;;;5103412;28;20061;-70
2022/03/21 03:01:16;;;;;;;116.25;61.25;;;-0.30;85.60;;;;;;5064942;27;20472;-70
2022/03/21 03:03:42;;;;;;;120.80;60.80;;;-0.30;85.60;;;;;;5068897;27;20036;-70
2022/03/21 03:06:09;;;;;;;110.90;59.28;;;-0.40;85.60;;;;;;5096817;27;20031;-70
2022/03/21 03:08:37;;;;;;;117.57;61.17;;;-0.30;85.70;;;;;;5092283;28;20035;-71
2022/03/21 03:11:02;;;;;;;120.78;61.90;;;-0.40;85.70;;;;;;5083766;27;20518;-71
2022/03/21 03:13:28;;;;;;;120.63;60.17;;;-0.40;85.70;;;;;;5075470;28;20035;-69
2022/03/21 03:15:54;;;;;;;110.50;57.65;;;-0.40;85.60;;;;;;5099740;27;20065;-69
2022/03/21 03:18:20;;;;;;;116.30;58.97;;;-0.40;85.70;;;;;;5065745;28;20145;-69
2022/03/21 03:20:51;;;;;;;107.97;57.08;;;-0.40;85.70;;;;;;5098671;28;20036;-70
2022/03/21 03:23:23;;;;;;;109.68;59.33;;;-0.40;85.70;;;;;;5094978;27;20050;-70
2022/03/21 03:25:56;;;;;;;117.95;60.47;;;-0.30;85.70;;;;;;5100749;28;20096;-70
2022/03/21 03:28:22;;;;;;;112.90;59.88;;;-0.40;85.80;;;;;;5125836;27;20044;-71
2022/03/21 03:30:48;;;;;;;112.50;59.07;;;-0.30;85.90;;;;;;5081446;28;20115;-70
2022/03/21 03:33:14;;;;;;;113.13;59.67;;;-0.30;86.00;;;;;;5081299;27;20036;-70
2022/03/21 03:35:40;;;;;;;124.20;62.20;;;-0.30;86.00;;;;;;5081830;28;20281;-70
2022/03/21 03:38:06;;;;;;;112.72;58.13;;;-0.30;86.10;;;;;;5095230;27;20518;-70
2022/03/21 03:40:32;;;;;;;116.67;60.63;;;-0.30;86.10;;;;;;5063343;28;20043;-70
2022/03/21 03:42:58;;;;;;;108.30;59.20;;;-0.30;86.00;;;;;;5098319;28;20094;-70
2022/03/21 03:45:25;;;;;;;118.07;59.83;;;-0.30;86.00;;;;;;5081448;28;20297;-70
2022/03/21 03:47:52;;;;;;;109.45;58.72;;;-0.30;86.00;;;;;;5080976;27;20277;-70
2022/03/21 03:50:18;;;;;;;109.25;57.55;;;-0.30;85.90;;;;;;5103640;28;20050;-70
2022/03/21 03:52:47;;;;;;;104.07;56.67;;;-0.40;86.00;;;;;;5105465;28;20090;-70
2022/03/21 03:55:19;;;;;;;108.47;58.00;;;-0.40;85.90;;;;;;5080428;28;20080;-70
2022/03/21 03:57:46;;;;;;;107.40;57.33;;;-0.40;85.90;;;;;;5103727;27;20479;-70
2022/03/21 04:00:14;;;;;;;109.63;57.25;;;-0.40;85.90;;;;;;5075022;28;20147;-70
2022/03/21 04:05:26;;;;;;;114.95;57.70;;;-0.40;85.90;;;;;;5080861;28;20048;-70
2022/03/21 04:07:52;;;;;;;113.30;58.92;;;-0.40;85.80;;;;;;5077288;28;20036;-70
2022/03/21 04:10:20;;;;;;;106.75;57.70;;;-0.40;85.80;;;;;;5103185;27;20142;-70
2022/03/21 04:12:48;;;;;;;104.30;56.03;;;-0.40;85.80;;;;;;5093393;28;20431;-70
2022/03/21 04:15:14;;;;;;;109.10;57.28;;;-0.50;85.70;;;;;;5110094;27;20537;-70
2022/03/21 04:17:40;;;;;;;111.07;59.63;;;-0.50;85.80;;;;;;5070097;28;20135;-70
2022/03/21 04:20:07;;;;;;;114.33;58.43;;;-0.50;85.80;;;;;;5090796;28;20063;-70
2022/03/21 04:22:34;;;;;;;113.47;58.28;;;-0.50;85.80;;;;;;5076455;28;20488;-70
2022/03/21 04:25:00;;;;;;;114.20;61.03;;;-0.50;85.70;;;;;;5106587;28;20039;-70
2022/03/21 04:27:26;;;;;;;113.65;57.45;;;-0.50;85.70;;;;;;5070810;28;20040;-70
2022/03/21 04:29:52;;;;;;;118.53;56.93;;;-0.50;85.80;;;;;;5106455;28;20420;-70
2022/03/21 04:32:17;;;;;;;114.67;61.00;;;-0.40;85.90;;;;;;5077933;28;20040;-70
2022/03/21 04:34:43;;;;;;;122.53;61.10;;;-0.40;85.80;;;;;;5073675;27;20396;-70
2022/03/21 04:37:09;;;;;;;117.97;62.17;;;-0.40;85.70;;;;;;5095275;28;20035;-71
2022/03/21 04:39:35;;;;;;;116.75;61.42;;;-0.50;85.70;;;;;;5109536;27;20050;-70
2022/03/21 04:42:01;;;;;;;116.30;59.37;;;-0.50;85.60;;;;;;5095040;28;20494;-70
2022/03/21 04:44:26;;;;;;;122.50;60.13;;;-0.50;85.60;;;;;;5127435;27;20047;-70
2022/03/21 04:46:52;;;;;;;116.47;60.53;;;-0.50;85.70;;;;;;5090537;28;20259;-70
2022/03/21 04:49:18;;;;;;;119.27;59.80;;;-0.50;85.60;;;;;;5067929;27;20035;-70
2022/03/21 04:51:44;;;;;;;127.43;63.93;;;-0.60;85.60;;;;;;5087987;28;20040;-71
2022/03/21 04:54:09;;;;;;;117.97;61.50;;;-0.60;85.60;;;;;;5101204;28;20081;-70
2022/03/21 04:56:35;;;;;;;129.50;62.13;;;-0.60;85.60;;;;;;5082388;28;20112;-70
2022/03/21 04:59:01;;;;;;;135.10;65.60;;;-0.60;85.70;;;;;;5083476;28;20780;-70
2022/03/21 05:01:27;;;;;;;118.30;62.07;;;-0.50;85.60;;;;;;5079727;28;20098;-70
2022/03/21 05:03:53;;;;;;;120.87;61.87;;;-0.50;85.60;;;;;;5108286;27;20039;-70
2022/03/21 05:06:19;;;;;;;120.33;59.90;;;-0.50;85.60;;;;;;5069536;27;20031;-70
2022/03/21 05:08:45;;;;;;;120.70;61.33;;;-0.50;85.70;;;;;;5093398;28;21177;-70
2022/03/21 05:11:11;;;;;;;124.00;62.57;;;-0.50;85.60;;;;;;5077293;28;20035;-70
2022/03/21 05:13:37;;;;;;;131.25;64.97;;;-0.50;85.70;;;;;;5090731;28;20043;-70
2022/03/21 05:16:05;;;;;;;136.90;64.85;;;-0.50;85.70;;;;;;5109249;27;20040;-70
2022/03/21 05:18:34;;;;;;;142.20;66.47;;;-0.50;85.70;;;;;;5093497;28;20056;-70
2022/03/21 05:21:01;;;;;;;132.35;64.35;;;-0.40;85.90;;;;;;5074035;28;20042;-70
2022/03/21 05:31:39;;;;;;;141.00;67.75;;;-0.30;86.20;;;;;;5101137;28;20392;-70
2022/03/21 05:36:50;;;;;;;124.93;61.53;;;-0.30;86.20;;;;;;5105370;27;20054;-70
2022/03/21 05:39:16;;;;;;;130.02;62.28;;;-0.30;86.10;;;;;;5100894;28;20512;-70
2022/03/21 05:41:42;;;;;;;132.70;63.35;;;-0.30;86.00;;;;;;5101888;28;20032;-70
2022/03/21 05:44:09;;;;;;;124.07;63.03;;;-0.30;86.20;;;;;;5101821;28;20359;-70
2022/03/21 05:46:34;;;;;;;133.18;63.38;;;-0.20;86.10;;;;;;5102756;28;20042;-70
2022/03/21 05:49:00;;;;;;;134.53;61.97;;;-0.20;86.10;;;;;;5108793;27;20115;-70
2022/03/21 05:51:30;;;;;;;132.00;63.97;;;-0.20;86.20;;;;;;5113251;27;20043;-70
2022/03/21 05:54:01;;;;;;;124.90;60.80;;;-0.20;86.10;;;;;;5126974;27;20082;-70
2022/03/21 05:56:28;;;;;;;125.55;60.70;;;-0.20;86.10;;;;;;5080091;28;20342;-70
2022/03/21 05:58:56;;;;;;;126.70;61.60;;;-0.20;86.10;;;;;;5081101;28;20043;-70
2022/03/21 06:01:23;;;;;;;121.97;59.30;;;-0.20;86.10;;;;;;5078041;28;20058;-70
2022/03/21 06:03:53;;;;;;;136.05;63.70;;;-0.20;86.10;;;;;;5124236;27;20123;-70
2022/03/21 06:06:20;;;;;;;127.47;60.45;;;-0.20;86.10;;;;;;5129002;27;20036;-70
2022/03/21 06:08:46;;;;;;;131.30;62.53;;;-0.20;86.10;;;;;;5107227;28;20044;-70
2022/03/21 06:11:12;;;;;;;126.40;60.20;;;-0.20;86.00;;;;;;5118631;27;20058;-70
2022/03/21 06:13:42;;;;;;;122.63;59.72;;;-0.10;86.10;;;;;;5098359;28;20445;-70
2022/03/21 06:16:08;;;;;;;118.90;57.92;;;-0.10;86.00;;;;;;5122062;27;20158;-70
2022/03/21 06:18:36;;;;;;;118.90;60.35;;;-0.10;86.10;;;;;;5084425;28;20055;-70
2022/03/21 06:21:04;;;;;;;123.47;62.30;;;0.00;86.00;;;;;;5093375;28;20126;-70
2022/03/21 06:23:30;;;;;;;130.50;62.83;;;0.00;86.10;;;;;;5081800;27;20035;-70
2022/03/21 06:25:58;;;;;;;111.53;58.73;;;0.00;86.10;;;;;;5099717;28;20062;-70
2022/03/21 06:28:25;;;;;;;119.50;60.70;;;0.10;86.00;;;;;;5066577;27;20047;-70
2022/03/21 06:30:51;;;;;;;128.68;61.20;;;0.10;86.00;;;;;;5085008;28;20039;-70
2022/03/21 06:33:29;;;;;;;123.50;60.40;;;0.20;86.20;;;;;;5103099;27;20442;-70
2022/03/21 06:35:56;;;;;;;124.93;60.58;;;0.20;86.20;;;;;;5095032;28;20032;-70
2022/03/21 06:38:23;;;;;;;121.60;61.03;;;0.30;86.20;;;;;;5093701;27;20080;-70
2022/03/21 06:40:49;;;;;;;108.20;54.75;;;0.30;86.10;;;;;;5110603;27;20038;-70
2022/03/21 06:43:20;;;;;;;117.63;59.10;;;0.40;86.10;;;;;;5107907;27;20499;-70
2022/03/21 06:45:47;;;;;;;115.20;57.67;;;0.50;86.20;;;;;;5084596;28;20049;-70
2022/03/21 06:48:14;;;;;;;105.35;56.70;;;0.50;86.20;;;;;;5064349;28;20042;-70
2022/03/21 06:50:39;;;;;;;101.97;53.92;;;0.60;86.20;;;;;;5087115;28;20717;-70
2022/03/21 06:53:05;;;;;;;102.30;53.30;;;0.70;86.20;;;;;;5064499;27;20070;-70
2022/03/21 06:55:30;;;;;;;114.83;58.83;;;0.80;86.20;;;;;;5082290;28;20586;-70
2022/03/21 06:57:56;;;;;;;103.53;55.63;;;0.90;86.30;;;;;;5077725;27;20054;-70
2022/03/21 07:00:22;;;;;;;121.67;60.83;;;0.90;86.20;;;;;;5074481;28;20560;-70
2022/03/21 07:02:48;;;;;;;106.70;57.30;;;1.00;86.20;;;;;;5087813;27;20051;-70
2022/03/21 07:05:14;;;;;;;101.38;54.03;;;1.10;86.30;;;;;;5098321;28;20039;-70
2022/03/21 07:07:39;;;;;;;109.83;56.10;;;1.20;86.30;;;;;;5113400;27;20040;-70
2022/03/21 07:10:06;;;;;;;103.47;55.77;;;1.30;86.40;;;;;;5084258;28;20043;-71
2022/03/21 07:12:38;;;;;;;97.20;55.22;;;1.40;86.20;;;;;;5125614;27;20415;-70
2022/03/21 07:15:05;;;;;;;98.30;54.17;;;1.50;86.30;;;;;;5087907;28;20044;-70
2022/03/21 07:17:31;;;;;;;97.57;53.15;;;1.60;86.30;;;;;;5106916;27;20609;-70
2022/03/21 07:19:57;;;;;;;100.07;54.40;;;1.70;86.30;;;;;;5093729;28;20274;-70
2022/03/21 07:22:22;;;;;;;95.67;52.83;;;1.80;86.20;;;;;;5088536;28;20109;-70
2022/03/21 07:24:49;;;;;;;94.70;53.47;;;1.90;86.30;;;;;;5083260;28;20044;-69
2022/03/21 07:27:16;;;;;;;93.28;51.35;;;2.00;86.30;;;;;;5080616;28;20038;-69
2022/03/21 07:29:42;;;;;;;86.72;49.00;;;2.00;86.30;;;;;;5098607;28;20046;-70
2022/03/21 07:32:08;;;;;;;86.53;48.30;;;2.20;86.40;;;;;;5099507;28;20036;-69
2022/03/21 07:34:34;;;;;;;92.70;51.20;;;2.20;86.30;;;;;;5095056;27;20057;-69
2022/03/21 07:36:59;;;;;;;86.03;48.20;;;2.30;86.30;;;;;;5095624;28;20039;-69
2022/03/21 07:39:25;;;;;;;83.03;47.83;;;2.40;86.20;;;;;;5105584;27;20040;-69
2022/03/21 07:41:59;;;;;;;84.60;47.97;;;2.50;86.20;;;;;;5105411;27;20481;-69
2022/03/21 07:47:20;;;;;;;75.40;43.97;;;2.70;86.10;;;;;;5089660;28;20039;-69
2022/03/21 07:49:51;;;;;;;72.32;44.35;;;2.80;86.10;;;;;;5082673;27;20070;-69
2022/03/21 07:52:18;;;;;;;78.25;46.80;;;2.90;85.90;;;;;;5079982;28;20047;-69
2022/03/21 07:54:45;;;;;;;66.93;42.00;;;3.00;85.80;;;;;;5064767;27;20467;-69
2022/03/21 07:57:11;;;;;;;71.20;44.30;;;3.10;85.80;;;;;;5075407;28;20061;-70
2022/03/21 07:59:37;;;;;;;71.93;44.00;;;3.20;85.60;;;;;;5078149;27;20039;-69
2022/03/21 08:02:05;;;;;;;66.38;41.33;;;3.30;85.60;;;;;;5067956;28;20039;-69
2022/03/21 08:04:31;;;;;;;65.07;40.00;;;3.50;85.70;;;;;;5077498;28;20586;-69
2022/03/21 08:06:59;;;;;;;61.38;38.53;;;3.60;85.60;;;;;;5057984;28;20039;-69
2022/03/21 08:09:24;;;;;;;66.43;38.28;;;3.80;85.40;;;;;;5109429;27;20043;-69
2022/03/21 08:11:50;;;;;;;57.47;36.73;;;4.00;85.40;;;;;;5073099;28;20046;-69
2022/03/21 08:14:17;;;;;;;61.20;36.57;;;4.20;85.40;;;;;;5104238;27;20078;-69
2022/03/21 08:16:43;;;;;;;56.72;31.85;;;4.40;85.20;;;;;;5123325;27;20043;-69
2022/03/21 08:19:09;;;;;;;53.70;31.60;;;4.60;85.10;;;;;;5059860;28;20051;-70
2022/03/21 08:21:34;;;;;;;52.13;30.87;;;4.80;84.80;;;;;;5065208;28;20046;-70
2022/03/21 08:24:00;;;;;;;45.17;29.10;;;4.90;84.20;;;;;;5086446;28;20082;-71
2022/03/21 08:26:27;;;;;;;46.93;29.00;;;5.10;83.50;;;;;;5088620;28;20820;-71
2022/03/21 08:28:52;;;;;;;52.45;30.23;;;5.20;82.70;;;;;;5100917;28;20803;-72
2022/03/21 08:31:18;;;;;;;47.73;30.43;;;5.40;81.90;;;;;;5103374;28;20278;-72
2022/03/21 08:33:44;;;;;;;45.80;29.63;;;5.50;81.50;;;;;;5105528;28;20108;-72
2022/03/21 08:36:12;;;;;;;48.87;30.53;;;5.60;81.60;;;;;;5122698;27;20080;-72
2022/03/21 08:38:39;;;;;;;47.75;30.35;;;5.80;81.60;;;;;;5070111;28;20031;-69
2022/03/21 08:41:05;;;;;;;46.58;29.48;;;6.00;81.00;;;;;;5103384;28;20434;-71
2022/03/21 08:43:30;;;;;;;44.73;28.13;;;6.10;81.30;;;;;;5070772;28;20146;-71
2022/03/21 08:45:56;;;;;;;46.23;29.47;;;6.20;81.00;;;;;;5121526;27;20035;-71
2022/03/21 08:49:23;;;;;;;49.90;30.53;;;6.30;80.30;;;;;;5063860;28;20510;-71
2022/03/21 08:51:09;;;;;;;50.50;29.38;;;6.50;80.50;;;;;;5074013;28;20039;-71
2022/03/21 08:53:34;;;;;;;49.17;28.53;;;6.60;80.00;;;;;;5104555;28;20046;-71
2022/03/21 08:56:00;;;;;;;49.90;30.33;;;6.80;79.60;;;;;;5089548;28;20550;-71
2022/03/21 08:58:27;;;;;;;48.70;30.53;;;6.90;79.70;;;;;;5052401;28;20530;-71
2022/03/21 09:00:52;;;;;;;49.97;30.95;;;7.10;78.90;;;;;;5081522;28;20051;-71
2022/03/21 09:03:18;;;;;;;49.70;30.27;;;7.20;78.80;;;;;;5070337;28;20100;-71
2022/03/21 09:05:46;;;;;;;50.70;29.50;;;7.40;77.90;;;;;;5098724;27;20043;-71
2022/03/21 09:08:11;;;;;;;47.55;28.80;;;7.60;77.60;;;;;;5089874;28;20035;-71
2022/03/21 09:10:37;;;;;;;52.60;29.90;;;7.70;76.70;;;;;;5068519;27;20082;-71
2022/03/21 09:13:05;;;;;;;48.73;29.90;;;7.80;76.80;;;;;;5084587;28;20894;-71
2022/03/21 09:15:31;;;;;;;53.50;30.27;;;7.90;76.40;;;;;;5068966;28;20051;-71
2022/03/21 09:17:57;;;;;;;48.58;29.42;;;8.00;76.20;;;;;;5084789;28;20051;-71
2022/03/21 09:20:23;;;;;;;45.78;29.52;;;8.20;75.80;;;;;;5072609;27;20082;-71
2022/03/21 09:22:49;;;;;;;47.30;29.17;;;8.30;74.80;;;;;;5097606;28;20039;-71
2022/03/21 09:25:17;;;;;;;50.50;28.87;;;8.40;74.10;;;;;;5053230;28;20317;-71
2022/03/21 09:27:42;;;;;;;48.83;29.08;;;8.50;74.50;;;;;;5078070;27;20439;-70
2022/03/21 09:30:10;;;;;;;49.13;29.87;;;8.70;74.40;;;;;;5088506;28;20075;-72
2022/03/21 09:32:36;;;;;;;48.28;27.58;;;8.80;74.60;;;;;;5070460;28;20599;-71
2022/03/21 09:35:01;;;;;;;54.83;32.23;;;9.00;74.30;;;;;;5101618;28;20043;-71
2022/03/21 09:37:27;;;;;;;55.10;33.60;;;9.10;74.20;;;;;;5085965;28;20416;-72
2022/03/21 09:39:53;;;;;;;59.20;35.93;;;9.30;73.70;;;;;;5051540;28;20100;-71
2022/03/21 09:42:19;;;;;;;59.85;34.47;;;9.30;71.10;;;;;;5085734;28;20047;-71
2022/03/21 09:44:46;;;;;;;64.53;35.97;;;9.40;70.40;;;;;;5068783;28;20039;-72
2022/03/21 09:49:58;;;;;;;62.78;36.45;;;9.70;71.00;;;;;;5084682;28;20082;-72
2022/03/21 09:52:24;;;;;;;64.75;37.03;;;9.80;69.00;;;;;;5116516;27;20044;-72
2022/03/21 09:54:51;;;;;;;68.57;38.60;;;10.00;69.40;;;;;;5079897;28;20118;-72
2022/03/21 09:57:18;;;;;;;75.65;40.42;;;10.10;67.30;;;;;;5053279;28;20452;-72
2022/03/21 09:59:44;;;;;;;76.50;42.13;;;10.20;69.20;;;;;;5085185;28;20122;-72
2022/03/21 10:02:16;;;;;;;66.28;38.95;;;10.20;67.10;;;;;;5103448;28;20040;-72
2022/03/21 10:04:43;;;;;;;64.20;35.58;;;10.30;67.40;;;;;;5073268;28;20123;-72
2022/03/21 10:07:10;;;;;;;54.25;31.00;;;10.40;66.70;;;;;;5067842;28;20499;-72
2022/03/21 10:09:36;;;;;;;54.60;30.17;;;10.50;65.10;;;;;;5073247;28;20127;-72
2022/03/21 10:12:08;;;;;;;53.30;31.43;;;10.60;63.70;;;;;;5072554;28;20105;-72
2022/03/21 10:14:37;;;;;;;56.38;32.70;;;10.70;63.90;;;;;;5070513;28;20097;-72
2022/03/21 10:17:07;;;;;;;51.28;30.77;;;10.90;64.70;;;;;;5068883;28;20040;-72
2022/03/21 10:19:45;;;;;;;48.92;29.85;;;11.00;64.40;;;;;;5069450;28;20055;-72
2022/03/21 10:22:20;;;;;;;43.53;26.60;;;11.20;63.70;;;;;;5098028;28;20046;-72
2022/03/21 10:24:48;;;;;;;49.70;29.23;;;11.30;62.80;;;;;;5086118;28;20135;-72
2022/03/21 10:27:34;;;;;;;47.47;29.17;;;11.30;60.70;;;;;;5090061;28;20108;-72
2022/03/21 10:30:23;;;;;;;50.70;29.10;;;11.40;60.30;;;;;;5117217;27;20035;-72
2022/03/21 10:32:52;;;;;;;52.83;29.50;;;11.40;58.90;;;;;;5060307;28;20058;-72
2022/03/21 10:35:29;;;;;;;42.63;25.00;;;11.50;59.00;;;;;;5069848;28;20075;-72
2022/03/21 10:38:03;;;;;;;42.28;27.27;;;11.50;57.70;;;;;;5102302;28;20508;-72
2022/03/21 10:40:30;;;;;;;41.78;25.73;;;11.60;58.50;;;;;;5103436;28;20047;-72
2022/03/21 10:43:05;;;;;;;41.50;26.70;;;11.70;58.70;;;;;;5103667;28;20044;-70
2022/03/21 10:45:53;;;;;;;58.25;34.28;;;11.80;58.40;;;;;;5101921;28;20036;-70
2022/03/21 10:48:24;;;;;;;33.60;21.05;;;11.90;59.40;;;;;;5050962;28;20036;-71
2022/03/21 10:50:53;;;;;;;33.92;20.75;;;12.00;58.20;;;;;;5084387;28;20047;-71
2022/03/21 10:53:27;;;;;;;28.73;18.17;;;12.00;56.40;;;;;;5085231;28;20057;-71
2022/03/21 10:56:12;;;;;;;30.23;19.33;;;12.20;55.20;;;;;;5080173;28;20046;-72
2022/03/21 10:58:42;;;;;;;30.45;20.23;;;12.20;52.60;;;;;;5116984;27;20448;-72
2022/03/21 11:01:19;;;;;;;23.33;16.02;;;12.20;51.90;;;;;;5065067;28;20036;-72
2022/03/21 11:03:49;;;;;;;22.33;15.90;;;12.20;51.00;;;;;;5118254;28;20496;-72
2022/03/21 11:06:16;;;;;;;23.73;16.63;;;12.30;51.80;;;;;;5067128;28;20036;-72
2022/03/21 11:08:44;;;;;;;27.02;17.48;;;12.40;52.60;;;;;;5104997;28;20040;-72
2022/03/21 11:11:10;;;;;;;27.63;18.23;;;12.40;52.20;;;;;;5088239;28;20034;-71
2022/03/21 11:13:37;;;;;;;25.23;17.35;;;12.50;51.60;;;;;;5087592;27;20039;-71
2022/03/21 11:16:04;;;;;;;27.10;17.97;;;12.40;50.30;;;;;;5088769;28;20480;-71
2022/03/21 11:18:30;;;;;;;23.13;15.75;;;12.40;50.30;;;;;;5086275;28;20342;-71
2022/03/21 11:20:57;;;;;;;19.30;13.77;;;12.50;50.30;;;;;;5102224;27;20109;-71
2022/03/21 11:23:25;;;;;;;21.57;14.23;;;12.50;48.10;;;;;;5072479;28;20048;-71
2022/03/21 11:26:11;;;;;;;20.77;13.50;;;12.60;50.10;;;;;;5101379;28;20751;-71
2022/03/21 11:28:43;;;;;;;18.40;12.83;;;12.80;46.50;;;;;;5076428;28;20273;-71
2022/03/21 11:31:43;;;;;;;21.03;13.77;;;12.90;45.50;;;;;;5123486;27;20364;-71
2022/03/21 11:34:26;;;;;;;18.90;12.53;;;13.00;47.10;;;;;;5089903;28;20289;-70
2022/03/21 11:36:54;;;;;;;16.97;12.00;;;13.00;45.80;;;;;;5089689;28;20296;-70
2022/03/21 11:39:19;;;;;;;18.70;13.10;;;13.10;46.90;;;;;;5091009;28;20789;-70
2022/03/21 11:42:08;;;;;;;20.83;13.27;;;13.10;42.70;;;;;;5122060;27;20320;-70
2022/03/21 11:44:35;;;;;;;20.77;13.50;;;13.10;43.80;;;;;;5084425;28;20302;-70
2022/03/21 11:47:22;;;;;;;17.00;12.23;;;13.20;46.00;;;;;;5105217;28;20856;-70
2022/03/21 11:49:48;;;;;;;22.33;13.73;;;13.30;45.00;;;;;;5122107;27;20289;-70
2022/03/21 11:52:14;;;;;;;18.33;13.03;;;13.30;43.90;;;;;;5092046;27;20278;-70
2022/03/21 11:54:40;;;;;;;19.37;13.00;;;13.40;45.40;;;;;;5089938;28;20047;-70
2022/03/21 11:57:07;;;;;;;17.73;12.80;;;13.60;44.40;;;;;;5081036;28;20321;-71
2022/03/21 11:59:33;;;;;;;16.47;11.43;;;13.70;43.90;;;;;;5093252;28;20300;-71
2022/03/21 12:02:03;;;;;;;18.63;12.37;;;13.70;42.60;;;;;;5088981;27;20278;-71
2022/03/21 12:04:29;;;;;;;18.43;13.17;;;13.70;42.40;;;;;;5091667;28;20039;-71
2022/03/21 12:07:14;;;;;;;19.43;13.30;;;13.50;41.00;;;;;;5090816;28;20274;-71
2022/03/21 12:09:44;;;;;;;18.73;12.87;;;13.60;42.10;;;;;;5094858;28;20640;-71
2022/03/21 12:12:17;;;;;;;20.13;12.47;;;13.60;41.50;;;;;;5112106;27;20313;-71
2022/03/21 12:14:44;;;;;;;20.23;13.67;;;13.60;42.10;;;;;;5080742;28;20285;-71
2022/03/21 12:17:13;;;;;;;16.63;12.60;;;13.70;42.90;;;;;;5104210;28;20368;-71
2022/03/21 12:19:45;;;;;;;17.17;12.93;;;13.70;43.50;;;;;;5104683;27;20297;-71
2022/03/21 12:22:29;;;;;;;20.07;13.87;;;13.80;44.70;;;;;;5108960;27;20272;-71
2022/03/21 12:25:00;;;;;;;19.87;14.07;;;14.00;43.50;;;;;;5073608;27;20924;-70
2022/03/21 12:27:33;;;;;;;20.00;13.63;;;14.10;43.00;;;;;;5079247;28;20961;-70
2022/03/21 12:30:21;;;;;;;17.97;13.57;;;14.00;42.80;;;;;;5087140;27;20301;-71
2022/03/21 12:32:54;;;;;;;19.70;14.73;;;14.00;42.30;;;;;;5121252;27;20633;-71
2022/03/21 12:35:32;;;;;;;20.00;14.47;;;14.00;43.10;;;;;;5103220;28;20381;-72
2022/03/21 12:38:06;;;;;;;22.70;14.90;;;14.00;42.60;;;;;;5125433;27;20289;-72
2022/03/21 12:40:50;;;;;;;22.75;14.85;;;13.90;43.50;;;;;;5100519;28;20289;-70
2022/03/21 12:43:27;;;;;;;21.07;15.27;;;14.00;43.80;;;;;;5099523;28;20043;-69
2022/03/21 12:46:14;;;;;;;20.50;15.10;;;14.20;44.70;;;;;;5095449;27;20332;-70
2022/03/21 12:48:44;;;;;;;23.80;16.93;;;14.40;43.80;;;;;;5086654;28;20269;-70
2022/03/21 12:51:13;;;;;;;20.90;15.83;;;14.40;43.90;;;;;;5087272;27;20390;-70
2022/03/21 12:53:43;;;;;;;22.37;15.50;;;14.50;42.60;;;;;;5076337;28;20300;-71